createdAt,value
2023-01-19T00:01:10.238Z,92.66
2023-01-19T00:03:37.529Z,94.01
2023-01-19T00:06:08.110Z,93.44
2023-01-19T00:08:39.135Z,93.16
2023-01-19T00:11:07.075Z,93.68
2023-01-19T00:13:38.993Z,92.53
2023-01-19T00:16:08.821Z,92.42
2023-01-19T00:18:38.497Z,93.02
2023-01-19T00:21:05.861Z,93.13
2023-01-19T00:23:35.197Z,93.99
2023-01-19T00:26:02.394Z,94.34
2023-01-19T00:28:29.573Z,94.35
2023-01-19T00:30:59.037Z,93.32
2023-01-19T00:33:28.780Z,93.25
2023-01-19T00:36:00.837Z,93.47
2023-01-19T00:38:32.686Z,93.06
2023-01-19T00:41:02.191Z,93.20
2023-01-19T00:43:29.306Z,92.33
2023-01-19T00:45:56.535Z,93.20
2023-01-19T00:48:23.899Z,92.34
2023-01-19T00:50:51.085Z,92.09
2023-01-19T00:53:18.394Z,91.74
2023-01-19T00:55:45.620Z,91.95
2023-01-19T00:58:12.754Z,92.17
2023-01-19T01:00:40.021Z,92.83
2023-01-19T01:03:10.024Z,92.66
2023-01-19T01:05:41.278Z,92.95
2023-01-19T01:08:08.464Z,93.07
2023-01-19T01:10:38.190Z,94.41
2023-01-19T01:13:20.523Z,94.21
2023-01-19T01:15:51.276Z,93.82
2023-01-19T01:18:18.519Z,93.65
2023-01-19T01:20:47.820Z,93.49
2023-01-19T01:23:15.217Z,93.49
2023-01-19T01:25:42.654Z,92.70
2023-01-19T01:28:10.398Z,92.73
2023-01-19T01:30:41.019Z,92.97
2023-01-19T01:33:11.825Z,93.13
2023-01-19T01:35:41.771Z,93.00
2023-01-19T01:38:11.761Z,93.16
2023-01-19T01:40:43.078Z,92.56
2023-01-19T01:43:14.712Z,92.62
2023-01-19T01:45:45.000Z,93.37
2023-01-19T01:48:30.440Z,93.02
2023-01-19T01:51:20.616Z,92.71
2023-01-19T01:53:52.379Z,92.87
2023-01-19T01:56:29.275Z,92.89
2023-01-19T01:59:01.576Z,93.22
2023-01-19T02:01:47.764Z,93.31
2023-01-19T02:04:15.077Z,93.33
2023-01-19T02:07:05.823Z,93.47
2023-01-19T02:09:54.796Z,92.72
2023-01-19T02:12:43.687Z,92.89
2023-01-19T02:15:20.216Z,93.07
2023-01-19T02:17:48.186Z,92.64
2023-01-19T02:20:20.741Z,92.55
2023-01-19T02:22:51.864Z,92.59
2023-01-19T02:25:22.200Z,93.01
2023-01-19T02:27:50.413Z,92.80
2023-01-19T02:30:18.301Z,93.65
2023-01-19T02:32:45.831Z,93.31
2023-01-19T02:35:13.279Z,92.10
2023-01-19T02:37:44.468Z,92.88
2023-01-19T02:40:15.246Z,92.53
2023-01-19T02:42:47.070Z,93.24
2023-01-19T02:45:19.766Z,93.34
2023-01-19T02:47:49.533Z,92.65
2023-01-19T02:50:49.923Z,93.19
2023-01-19T02:53:51.352Z,93.39
2023-01-19T02:56:32.805Z,92.57
2023-01-19T02:59:06.150Z,92.47
2023-01-19T03:01:51.454Z,92.21
2023-01-19T03:04:30.032Z,91.82
2023-01-19T03:07:09.326Z,91.99
2023-01-19T03:09:49.703Z,92.05
2023-01-19T03:12:40.709Z,91.96
2023-01-19T03:15:16.190Z,93.28
2023-01-19T03:17:49.770Z,92.75
2023-01-19T03:20:22.637Z,92.97
2023-01-19T03:22:56.236Z,92.64
2023-01-19T03:25:26.331Z,92.35
2023-01-19T03:27:56.995Z,92.03
2023-01-19T03:30:39.313Z,91.58
2023-01-19T03:33:13.050Z,92.89
2023-01-19T03:35:45.998Z,93.58
2023-01-19T03:38:16.730Z,93.47
2023-01-19T03:40:45.570Z,93.47
2023-01-19T03:43:16.786Z,93.06
2023-01-19T03:45:47.508Z,93.39
2023-01-19T03:48:14.731Z,92.75
2023-01-19T03:50:41.981Z,92.14
2023-01-19T03:53:11.850Z,92.45
2023-01-19T03:55:42.336Z,93.16
2023-01-19T03:58:10.220Z,91.92
2023-01-19T04:00:40.521Z,93.02
2023-01-19T04:03:17.031Z,92.28
2023-01-19T04:05:45.197Z,91.98
2023-01-19T04:08:13.101Z,93.29
2023-01-19T04:10:42.580Z,93.61
2023-01-19T04:13:12.346Z,93.17
2023-01-19T04:15:42.035Z,92.72
2023-01-19T04:18:11.928Z,92.92
2023-01-19T04:20:39.102Z,92.56
2023-01-19T04:23:06.278Z,93.04
2023-01-19T04:25:33.557Z,93.03
2023-01-19T04:28:00.775Z,92.84
2023-01-19T04:30:30.196Z,92.51
2023-01-19T04:32:59.818Z,92.83
2023-01-19T04:35:27.360Z,92.93
2023-01-19T04:37:56.700Z,91.61
2023-01-19T04:40:24.643Z,93.01
2023-01-19T04:42:54.469Z,92.76
2023-01-19T04:45:21.689Z,92.57
2023-01-19T04:47:50.875Z,92.30
2023-01-19T04:50:18.110Z,92.62
2023-01-19T04:52:47.031Z,92.89
2023-01-19T04:55:14.306Z,93.03
2023-01-19T04:57:41.980Z,92.54
2023-01-19T05:00:12.029Z,93.31
2023-01-19T05:02:39.501Z,92.57
2023-01-19T05:05:06.913Z,92.10
2023-01-19T05:07:35.107Z,93.49
2023-01-19T05:10:02.333Z,92.98
2023-01-19T05:12:29.480Z,92.96
2023-01-19T05:14:59.241Z,93.65
2023-01-19T05:17:26.498Z,93.36
2023-01-19T05:19:55.825Z,93.38
2023-01-19T05:22:22.960Z,93.24
2023-01-19T05:24:52.386Z,93.93
2023-01-19T05:27:19.524Z,92.75
2023-01-19T05:29:46.691Z,93.41
2023-01-19T05:32:13.949Z,93.85
2023-01-19T05:34:41.242Z,93.43
2023-01-19T05:37:08.643Z,94.05
2023-01-19T05:39:35.921Z,92.61
2023-01-19T05:42:05.618Z,92.26
2023-01-19T05:44:32.746Z,91.90
2023-01-19T05:47:00.036Z,92.31
2023-01-19T05:49:27.441Z,92.21
2023-01-19T05:51:57.210Z,92.72
2023-01-19T05:54:24.450Z,92.12
2023-01-19T05:56:51.550Z,92.67
2023-01-19T05:59:24.100Z,91.62
2023-01-19T06:01:52.170Z,92.25
2023-01-19T06:04:20.557Z,92.05
2023-01-19T06:06:48.885Z,92.43
2023-01-19T06:09:17.389Z,90.72
2023-01-19T06:11:45.645Z,91.28
2023-01-19T06:14:13.359Z,91.34
2023-01-19T06:16:40.911Z,91.53
2023-01-19T06:19:08.122Z,91.22
2023-01-19T06:21:39.988Z,90.60
2023-01-19T06:24:07.332Z,90.86
2023-01-19T06:26:34.434Z,91.81
2023-01-19T06:29:01.612Z,92.42
2023-01-19T06:31:28.826Z,91.09
2023-01-19T06:33:56.097Z,91.11
2023-01-19T06:36:25.369Z,91.14
2023-01-19T06:38:54.753Z,91.29
2023-01-19T06:41:24.404Z,91.16
2023-01-19T06:43:53.886Z,91.26
2023-01-19T06:46:21.112Z,90.15
2023-01-19T06:48:48.285Z,91.11
2023-01-19T06:51:15.449Z,90.96
2023-01-19T06:53:45.366Z,89.89
2023-01-19T06:56:12.620Z,91.10
2023-01-19T06:58:43.401Z,90.63
2023-01-19T07:01:10.918Z,90.75
2023-01-19T07:03:43.006Z,90.70
2023-01-19T07:06:10.537Z,91.66
2023-01-19T07:08:40.025Z,92.68
2023-01-19T07:11:22.212Z,92.58
2023-01-19T07:13:55.698Z,91.96
2023-01-19T07:16:25.926Z,92.15
2023-01-19T07:18:55.497Z,92.12
2023-01-19T07:21:23.250Z,92.14
2023-01-19T07:23:55.262Z,92.05
2023-01-19T07:26:25.086Z,91.89
2023-01-19T07:28:52.762Z,92.76
2023-01-19T07:31:20.241Z,92.19
2023-01-19T07:33:47.504Z,92.45
2023-01-19T07:36:14.739Z,91.58
2023-01-19T07:38:41.900Z,92.81
2023-01-19T07:41:10.369Z,92.88
2023-01-19T07:43:40.000Z,92.59
2023-01-19T07:46:08.445Z,92.11
2023-01-19T07:48:35.693Z,91.71
2023-01-19T07:51:27.990Z,92.38
2023-01-19T07:53:55.206Z,92.16
2023-01-19T07:56:24.273Z,92.42
2023-01-19T07:58:52.622Z,92.59
2023-01-19T08:01:19.953Z,92.22
2023-01-19T08:03:52.646Z,91.74
2023-01-19T08:06:24.480Z,91.59
2023-01-19T08:08:54.312Z,90.47
2023-01-19T08:11:21.520Z,89.77
2023-01-19T08:14:17.432Z,89.68
2023-01-19T08:16:44.745Z,90.14
2023-01-19T08:19:11.902Z,89.63
2023-01-19T08:21:39.160Z,90.59
2023-01-19T08:24:06.641Z,90.53
2023-01-19T08:26:35.245Z,91.41
2023-01-19T08:29:05.510Z,90.92
2023-01-19T08:31:32.825Z,90.35
2023-01-19T08:34:02.346Z,90.95
2023-01-19T08:36:29.581Z,90.59
2023-01-19T08:38:59.138Z,89.87
2023-01-19T08:41:26.885Z,89.94
2023-01-19T08:43:54.053Z,89.13
2023-01-19T08:46:21.935Z,91.16
2023-01-19T08:48:51.499Z,90.56
2023-01-19T08:51:19.422Z,89.77
2023-01-19T08:53:46.640Z,91.14
2023-01-19T08:56:14.502Z,90.66
2023-01-19T08:58:46.739Z,90.44
2023-01-19T09:01:20.654Z,89.38
2023-01-19T09:03:53.533Z,90.17
2023-01-19T09:06:24.428Z,89.82
2023-01-19T09:08:51.594Z,90.80
2023-01-19T09:11:23.281Z,90.15
2023-01-19T09:13:52.613Z,90.64
2023-01-19T09:16:19.802Z,89.79
2023-01-19T09:18:46.992Z,90.52
2023-01-19T09:21:15.186Z,90.11
2023-01-19T09:23:42.558Z,89.50
2023-01-19T09:26:10.619Z,89.78
2023-01-19T09:28:38.424Z,90.58
2023-01-19T09:31:07.864Z,89.40
2023-01-19T09:33:35.775Z,89.77
2023-01-19T09:36:03.078Z,89.76
2023-01-19T09:38:33.123Z,89.82
2023-01-19T09:41:01.062Z,90.30
2023-01-19T09:43:40.030Z,90.56
2023-01-19T09:46:14.369Z,90.47
2023-01-19T09:48:52.181Z,90.38
2023-01-19T09:51:21.521Z,89.24
2023-01-19T09:53:51.671Z,90.23
2023-01-19T09:56:22.662Z,89.58
2023-01-19T09:58:51.376Z,90.76
2023-01-19T10:01:34.804Z,89.14
2023-01-19T10:04:28.521Z,88.67
2023-01-19T10:07:10.654Z,89.43
2023-01-19T10:10:02.903Z,88.31
2023-01-19T10:12:53.712Z,88.38
2023-01-19T10:15:54.147Z,88.59
2023-01-19T10:18:43.263Z,89.16
2023-01-19T10:21:23.148Z,90.59
2023-01-19T10:23:52.761Z,89.93
2023-01-19T10:26:49.545Z,90.56
2023-01-19T10:29:28.270Z,90.11
2023-01-19T10:32:07.068Z,89.17
2023-01-19T10:34:36.850Z,89.78
2023-01-19T10:37:31.305Z,89.09
2023-01-19T10:40:09.785Z,90.49
2023-01-19T10:42:38.791Z,90.13
2023-01-19T10:45:23.963Z,89.36
2023-01-19T10:47:54.029Z,90.28
2023-01-19T10:50:33.100Z,88.54
2023-01-19T10:53:06.258Z,90.45
2023-01-19T10:55:39.888Z,89.43
2023-01-19T10:58:30.203Z,89.77
2023-01-19T11:01:25.854Z,89.70
2023-01-19T11:03:54.464Z,89.65
2023-01-19T11:06:29.116Z,89.90
2023-01-19T11:09:18.632Z,90.42
2023-01-19T11:11:51.599Z,89.44
2023-01-19T11:14:23.086Z,89.54
2023-01-19T11:16:56.656Z,88.10
2023-01-19T11:19:32.545Z,88.12
2023-01-19T11:22:34.343Z,90.34
2023-01-19T11:25:04.611Z,88.83
2023-01-19T11:27:37.601Z,89.64
2023-01-19T11:30:16.262Z,87.72
2023-01-19T11:32:46.083Z,87.65
2023-01-19T11:35:39.633Z,86.92
2023-01-19T11:38:12.854Z,87.36
2023-01-19T11:40:46.621Z,88.16
2023-01-19T11:43:14.071Z,88.78
2023-01-19T11:45:41.551Z,87.89
2023-01-19T11:48:22.641Z,87.81
2023-01-19T11:50:52.303Z,88.38
2023-01-19T11:53:30.781Z,88.16
2023-01-19T11:56:03.165Z,88.40
2023-01-19T11:58:33.269Z,87.64
2023-01-19T12:01:16.209Z,87.63
2023-01-19T12:03:48.996Z,88.14
2023-01-19T12:06:23.846Z,88.34
2023-01-19T12:09:01.854Z,88.53
2023-01-19T12:11:40.615Z,87.47
2023-01-19T12:14:19.585Z,88.53
2023-01-19T12:16:46.831Z,89.76
2023-01-19T12:19:18.489Z,88.63
2023-01-19T12:21:49.221Z,87.22
2023-01-19T12:24:23.620Z,88.58
2023-01-19T12:27:02.040Z,87.93
2023-01-19T12:29:33.771Z,88.12
2023-01-19T12:32:20.732Z,87.41
2023-01-19T12:34:51.858Z,88.30
2023-01-19T12:37:31.040Z,88.06
2023-01-19T12:40:01.557Z,88.25
2023-01-19T12:42:29.378Z,87.18
2023-01-19T12:45:09.153Z,87.50
2023-01-19T12:47:37.100Z,87.94
2023-01-19T12:50:13.169Z,87.84
2023-01-19T12:52:48.005Z,88.09
2023-01-19T12:55:15.156Z,87.15
2023-01-19T12:57:55.591Z,87.80
2023-01-19T13:00:22.787Z,87.16
2023-01-19T13:02:52.037Z,87.63
2023-01-19T13:05:22.217Z,87.17
2023-01-19T13:08:11.399Z,86.93
2023-01-19T13:11:00.879Z,86.78
2023-01-19T13:13:33.471Z,86.59
2023-01-19T13:16:19.309Z,86.46
2023-01-19T13:18:47.973Z,88.31
2023-01-19T13:21:28.034Z,87.83
2023-01-19T13:23:59.111Z,87.50
2023-01-19T13:26:33.240Z,86.55
2023-01-19T13:29:07.226Z,86.92
2023-01-19T13:31:36.320Z,87.06
2023-01-19T13:34:11.010Z,87.15
2023-01-19T13:36:46.462Z,88.19
2023-01-19T13:39:24.678Z,87.26
2023-01-19T13:41:56.095Z,87.10
2023-01-19T13:44:47.205Z,86.96
2023-01-19T13:47:22.429Z,86.30
2023-01-19T13:49:57.893Z,87.18
2023-01-19T13:52:27.698Z,87.45
2023-01-19T13:54:55.979Z,86.91
2023-01-19T13:57:32.172Z,87.65
2023-01-19T14:00:14.615Z,86.41
2023-01-19T14:03:02.718Z,85.69
2023-01-19T14:05:36.975Z,85.83
2023-01-19T14:08:18.065Z,85.60
2023-01-19T14:11:02.438Z,86.93
2023-01-19T14:13:34.877Z,86.26
2023-01-19T14:16:11.271Z,85.84
2023-01-19T14:18:38.577Z,87.17
2023-01-19T14:21:08.870Z,86.87
2023-01-19T14:24:08.561Z,85.52
2023-01-19T14:26:39.121Z,85.95
2023-01-19T14:29:33.788Z,86.24
2023-01-19T14:32:15.035Z,86.31
2023-01-19T14:34:44.963Z,85.70
2023-01-19T14:37:23.073Z,86.49
2023-01-19T14:39:50.309Z,86.92
2023-01-19T14:42:23.534Z,86.40
2023-01-19T14:44:53.205Z,84.78
2023-01-19T14:47:35.592Z,84.57
2023-01-19T14:50:23.531Z,85.53
2023-01-19T14:53:05.590Z,86.19
2023-01-19T14:55:48.151Z,85.29
2023-01-19T14:58:18.649Z,84.51
2023-01-19T15:00:47.408Z,85.82
2023-01-19T15:03:17.125Z,85.49
2023-01-19T15:05:46.113Z,85.13
2023-01-19T15:08:22.964Z,85.41
2023-01-19T15:10:52.423Z,85.72
2023-01-19T15:13:21.982Z,85.28
2023-01-19T15:15:50.094Z,85.63
2023-01-19T15:18:22.473Z,85.36
2023-01-19T15:20:51.715Z,85.13
2023-01-19T15:23:21.261Z,85.35
2023-01-19T15:25:49.769Z,85.07
2023-01-19T15:28:20.376Z,84.30
2023-01-19T15:30:47.660Z,84.71
2023-01-19T15:33:20.603Z,84.97
2023-01-19T15:35:48.429Z,84.80
2023-01-19T15:38:18.096Z,85.25
2023-01-19T15:40:48.000Z,84.55
2023-01-19T15:43:21.460Z,85.18
2023-01-19T15:46:02.259Z,83.83
2023-01-19T15:48:29.518Z,85.36
2023-01-19T15:51:01.257Z,85.89
2023-01-19T15:53:30.708Z,85.30
2023-01-19T15:56:00.269Z,85.02
2023-01-19T15:58:27.518Z,85.03
2023-01-19T16:00:57.087Z,85.41
2023-01-19T16:03:25.856Z,85.70
2023-01-19T16:05:55.390Z,84.99
2023-01-19T16:08:24.625Z,84.74
2023-01-19T16:10:51.765Z,84.72
2023-01-19T16:13:18.916Z,85.66
2023-01-19T16:15:46.066Z,85.34
2023-01-19T16:18:13.433Z,85.10
2023-01-19T16:20:40.609Z,85.97
2023-01-19T16:23:15.630Z,85.87
2023-01-19T16:25:54.574Z,86.01
2023-01-19T16:28:21.758Z,85.99
2023-01-19T16:30:51.851Z,85.94
2023-01-19T16:33:19.334Z,86.37
2023-01-19T16:35:46.542Z,86.96
2023-01-19T16:38:13.700Z,86.56
2023-01-19T16:40:43.401Z,85.51
2023-01-19T16:43:12.976Z,86.07
2023-01-19T16:46:00.235Z,86.75
2023-01-19T16:48:27.872Z,86.55
2023-01-19T16:51:00.396Z,86.68
2023-01-19T16:53:28.814Z,85.44
2023-01-19T16:55:56.264Z,85.13
2023-01-19T16:58:23.814Z,85.13
2023-01-19T17:00:51.118Z,85.34
2023-01-19T17:03:20.677Z,86.09
2023-01-19T17:05:51.862Z,86.82
2023-01-19T17:08:22.911Z,87.01
2023-01-19T17:10:52.335Z,86.09
2023-01-19T17:13:21.793Z,85.59
2023-01-19T17:15:48.998Z,86.36
2023-01-19T17:18:16.246Z,85.46
2023-01-19T17:20:48.295Z,85.72
2023-01-19T17:23:15.738Z,86.38
2023-01-19T17:25:42.871Z,85.90
2023-01-19T17:28:10.016Z,85.77
2023-01-19T17:30:37.279Z,85.56
2023-01-19T17:33:04.553Z,85.35
2023-01-19T17:35:34.429Z,86.26
2023-01-19T17:38:01.611Z,85.95
2023-01-19T17:40:32.226Z,85.96
2023-01-19T17:42:59.397Z,85.33
2023-01-19T17:45:26.531Z,85.55
2023-01-19T17:47:53.718Z,85.77
2023-01-19T17:50:22.885Z,86.02
2023-01-19T17:52:50.037Z,85.69
2023-01-19T17:55:18.400Z,85.43
2023-01-19T17:57:45.673Z,85.27
2023-01-19T18:00:15.635Z,85.23
2023-01-19T18:02:43.370Z,85.42
2023-01-19T18:05:12.668Z,84.61
2023-01-19T18:07:40.270Z,84.84
2023-01-19T18:10:08.398Z,83.81
2023-01-19T18:12:38.250Z,85.01
2023-01-19T18:15:08.945Z,84.88
2023-01-19T18:17:36.104Z,84.85
2023-01-19T18:20:04.494Z,85.64
2023-01-19T18:22:33.902Z,84.93
2023-01-19T18:25:01.669Z,84.38
2023-01-19T18:27:29.483Z,84.65
2023-01-19T18:29:59.195Z,84.33
2023-01-19T18:32:52.184Z,85.06
2023-01-19T18:35:23.060Z,85.82
2023-01-19T18:37:50.286Z,86.07
2023-01-19T18:40:17.849Z,85.25
2023-01-19T18:42:47.691Z,85.02
2023-01-19T18:45:17.167Z,85.22
2023-01-19T18:47:46.877Z,84.65
2023-01-19T18:50:14.441Z,85.50
2023-01-19T18:52:45.738Z,86.11
2023-01-19T18:55:38.363Z,84.66
2023-01-19T18:58:07.072Z,85.46
2023-01-19T19:00:34.269Z,85.30
2023-01-19T19:03:01.574Z,85.51
2023-01-19T19:05:28.781Z,85.41
2023-01-19T19:07:56.060Z,84.93
2023-01-19T19:10:23.227Z,85.36
2023-01-19T19:12:50.476Z,85.66
2023-01-19T19:15:17.754Z,86.36
2023-01-19T19:17:44.970Z,86.57
2023-01-19T19:20:13.033Z,85.87
2023-01-19T19:22:42.801Z,85.62
2023-01-19T19:25:10.082Z,85.54
2023-01-19T19:27:41.119Z,85.49
2023-01-19T19:30:09.136Z,85.92
2023-01-19T19:32:38.560Z,85.83
2023-01-19T19:35:06.041Z,85.79
2023-01-19T19:37:33.205Z,85.95
2023-01-19T19:40:00.532Z,85.76
2023-01-19T19:42:30.089Z,86.63
2023-01-19T19:44:57.291Z,86.14
2023-01-19T19:47:24.572Z,86.10
2023-01-19T19:49:51.759Z,86.29
2023-01-19T19:52:21.257Z,86.15
2023-01-19T19:54:48.984Z,87.07
2023-01-19T19:57:16.160Z,85.87
2023-01-19T19:59:43.361Z,85.41
2023-01-19T20:02:12.312Z,86.38
2023-01-19T20:04:40.302Z,85.57
2023-01-19T20:07:07.482Z,86.75
2023-01-19T20:09:37.228Z,86.26
2023-01-19T20:12:08.094Z,85.15
2023-01-19T20:14:35.297Z,85.61
2023-01-19T20:17:05.766Z,86.13
2023-01-19T20:19:32.939Z,84.84
2023-01-19T20:22:04.935Z,84.88
2023-01-19T20:24:32.204Z,84.80
2023-01-19T20:27:01.410Z,84.31
2023-01-19T20:29:30.820Z,83.93
2023-01-19T20:32:00.119Z,85.21
2023-01-19T20:34:33.025Z,84.23
2023-01-19T20:37:01.746Z,84.71
2023-01-19T20:39:33.151Z,83.23
2023-01-19T20:42:01.666Z,83.46
2023-01-19T20:44:30.995Z,83.05
2023-01-19T20:46:58.240Z,83.51
2023-01-19T20:49:25.400Z,83.46
2023-01-19T20:51:53.384Z,82.45
2023-01-19T20:54:27.380Z,82.75
2023-01-19T20:56:54.611Z,82.20
2023-01-19T20:59:23.996Z,82.75
2023-01-19T21:01:53.727Z,83.12
2023-01-19T21:04:20.984Z,82.71
2023-01-19T21:06:48.488Z,82.58
2023-01-19T21:09:15.672Z,81.76
2023-01-19T21:11:42.857Z,81.60
2023-01-19T21:14:10.516Z,81.78
2023-01-19T21:16:37.869Z,82.36
2023-01-19T21:19:09.655Z,82.26
2023-01-19T21:21:38.962Z,82.24
2023-01-19T21:24:09.729Z,82.60
2023-01-19T21:26:37.836Z,82.12
2023-01-19T21:29:04.987Z,82.15
2023-01-19T21:31:32.314Z,82.07
2023-01-19T21:33:59.725Z,81.61
2023-01-19T21:36:27.168Z,81.40
2023-01-19T21:39:00.300Z,81.61
2023-01-19T21:41:30.252Z,81.87
2023-01-19T21:44:00.748Z,82.11
2023-01-19T21:46:33.095Z,81.77
2023-01-19T21:49:04.552Z,81.71
2023-01-19T21:51:36.890Z,81.66
2023-01-19T21:54:08.224Z,81.80
2023-01-19T21:56:38.077Z,81.90
2023-01-19T21:59:05.519Z,81.80
2023-01-19T22:01:33.874Z,81.97
2023-01-19T22:04:01.317Z,82.25
2023-01-19T22:06:29.280Z,82.17
2023-01-19T22:09:00.714Z,83.93
2023-01-19T22:11:28.662Z,84.90
2023-01-19T22:13:56.128Z,84.85
2023-01-19T22:16:23.761Z,85.47
2023-01-19T22:18:59.498Z,85.34
2023-01-19T22:21:29.915Z,84.75
2023-01-19T22:24:01.636Z,85.22
2023-01-19T22:26:29.989Z,84.84
2023-01-19T22:29:02.209Z,86.23
2023-01-19T22:31:30.692Z,86.08
2023-01-19T22:33:58.348Z,87.01
2023-01-19T22:36:30.961Z,85.89
2023-01-19T22:39:09.295Z,85.94
2023-01-19T22:41:39.453Z,85.03
2023-01-19T22:44:10.281Z,83.92
2023-01-19T22:46:40.513Z,83.20
2023-01-19T22:49:12.621Z,82.66
2023-01-19T22:51:44.745Z,82.39
2023-01-19T22:54:12.711Z,83.34
2023-01-19T22:56:40.921Z,83.01
2023-01-19T22:59:10.940Z,82.79
2023-01-19T23:01:45.780Z,84.00
2023-01-19T23:04:14.900Z,83.82
2023-01-19T23:06:42.795Z,82.98
2023-01-19T23:09:15.505Z,82.50
2023-01-19T23:11:45.168Z,82.29
2023-01-19T23:14:16.860Z,82.15
2023-01-19T23:16:44.513Z,81.95
2023-01-19T23:19:14.466Z,82.61
2023-01-19T23:21:44.643Z,83.14
2023-01-19T23:24:15.263Z,83.18
2023-01-19T23:26:42.378Z,83.41
2023-01-19T23:29:16.011Z,83.56
2023-01-19T23:31:47.309Z,83.15
2023-01-19T23:34:17.427Z,82.92
2023-01-19T23:36:45.587Z,82.53
2023-01-19T23:39:16.960Z,83.01
2023-01-19T23:41:48.996Z,83.53
2023-01-19T23:44:18.953Z,83.13
2023-01-19T23:46:46.742Z,83.86
2023-01-19T23:49:13.999Z,83.66
2023-01-19T23:51:41.819Z,82.97
2023-01-19T23:54:12.389Z,82.89
2023-01-19T23:56:42.873Z,83.37
2023-01-19T23:59:15.357Z,83.29
